createdAt,value
2022-09-12T00:00:57.618Z,990.37
2022-09-12T00:01:57.589Z,990.36
2022-09-12T00:02:57.563Z,990.35
2022-09-12T00:03:57.591Z,990.35
2022-09-12T00:04:57.615Z,990.35
2022-09-12T00:05:57.540Z,990.35
2022-09-12T00:06:57.537Z,990.35
2022-09-12T00:07:57.528Z,990.35
2022-09-12T00:08:57.525Z,990.35
2022-09-12T00:09:57.590Z,990.36
2022-09-12T00:10:57.508Z,990.36
2022-09-12T00:11:57.492Z,990.36
2022-09-12T00:12:57.489Z,990.36
2022-09-12T00:13:57.476Z,990.35
2022-09-12T00:14:57.471Z,990.34
2022-09-12T00:15:57.480Z,990.32
2022-09-12T00:16:57.463Z,990.31
2022-09-12T00:17:57.464Z,990.31
2022-09-12T00:18:57.449Z,990.29
2022-09-12T00:19:57.467Z,990.27
2022-09-12T00:20:57.435Z,990.25
2022-09-12T00:21:57.432Z,990.22
2022-09-12T00:22:57.422Z,990.19
2022-09-12T00:23:57.457Z,990.17
2022-09-12T00:24:57.431Z,990.15
2022-09-12T00:25:57.406Z,990.13
2022-09-12T00:26:57.387Z,990.12
2022-09-12T00:27:57.382Z,990.11
2022-09-12T00:28:57.373Z,990.11
2022-09-12T00:29:57.361Z,990.13
2022-09-12T00:30:57.373Z,990.13
2022-09-12T00:31:57.388Z,990.13
2022-09-12T00:32:57.338Z,990.14
2022-09-12T00:33:57.353Z,990.13
2022-09-12T00:34:57.325Z,990.13
2022-09-12T00:35:57.317Z,990.12
2022-09-12T00:36:57.313Z,990.11
2022-09-12T00:37:57.296Z,990.11
2022-09-12T00:38:57.314Z,990.10
2022-09-12T00:39:57.310Z,990.10
2022-09-12T00:40:57.273Z,990.09
2022-09-12T00:41:57.284Z,990.09
2022-09-12T00:42:57.467Z,990.08
2022-09-12T00:43:57.256Z,990.08
2022-09-12T00:44:57.336Z,990.07
2022-09-12T00:45:57.252Z,990.06
2022-09-12T00:46:57.218Z,990.05
2022-09-12T00:47:57.223Z,990.04
2022-09-12T00:48:57.258Z,990.03
2022-09-12T00:49:57.200Z,990.02
2022-09-12T00:50:57.192Z,990.01
2022-09-12T00:51:57.185Z,990.00
2022-09-12T00:52:57.185Z,989.99
2022-09-12T00:53:57.190Z,989.97
2022-09-12T00:54:57.160Z,989.95
2022-09-12T00:55:57.145Z,989.93
2022-09-12T00:56:57.140Z,989.91
2022-09-12T00:57:57.149Z,989.91
2022-09-12T00:58:57.143Z,989.90
2022-09-12T00:59:57.135Z,989.89
2022-09-12T01:00:57.237Z,989.89
2022-09-12T01:01:57.208Z,989.88
2022-09-12T01:02:57.094Z,989.88
2022-09-12T01:03:57.111Z,989.87
2022-09-12T01:04:57.086Z,989.85
2022-09-12T01:05:57.095Z,989.83
2022-09-12T01:06:57.075Z,989.82
2022-09-12T01:07:57.057Z,989.82
2022-09-12T01:08:57.072Z,989.82
2022-09-12T01:09:57.036Z,989.82
2022-09-12T01:10:57.033Z,989.81
2022-09-12T01:11:57.013Z,989.80
2022-09-12T01:12:57.019Z,989.79
2022-09-12T01:13:57.015Z,989.78
2022-09-12T01:14:57.022Z,989.76
2022-09-12T01:15:56.988Z,989.76
2022-09-12T01:16:56.977Z,989.76
2022-09-12T01:17:56.972Z,989.77
2022-09-12T01:18:56.960Z,989.77
2022-09-12T01:19:56.992Z,989.77
2022-09-12T01:20:56.972Z,989.77
2022-09-12T01:21:56.954Z,989.77
2022-09-12T01:22:56.957Z,989.78
2022-09-12T01:23:56.935Z,989.78
2022-09-12T01:24:56.920Z,989.78
2022-09-12T01:25:56.943Z,989.78
2022-09-12T01:26:56.935Z,989.79
2022-09-12T01:27:56.917Z,989.79
2022-09-12T01:28:56.889Z,989.79
2022-09-12T01:29:56.888Z,989.79
2022-09-12T01:30:56.864Z,989.79
2022-09-12T01:31:56.924Z,989.79
2022-09-12T01:32:56.872Z,989.80
2022-09-12T01:33:56.861Z,989.80
2022-09-12T01:34:56.835Z,989.80
2022-09-12T01:35:56.853Z,989.80
2022-09-12T01:36:56.830Z,989.80
2022-09-12T01:37:56.827Z,989.79
2022-09-12T01:38:56.840Z,989.78
2022-09-12T01:39:56.826Z,989.77
2022-09-12T01:40:56.803Z,989.76
2022-09-12T01:41:56.798Z,989.76
2022-09-12T01:42:56.808Z,989.75
2022-09-12T01:43:56.777Z,989.74
2022-09-12T01:44:56.760Z,989.74
2022-09-12T01:45:56.795Z,989.74
2022-09-12T01:46:56.742Z,989.75
2022-09-12T01:47:56.786Z,989.75
2022-09-12T01:48:56.731Z,989.75
2022-09-12T01:49:56.724Z,989.76
2022-09-12T01:50:56.719Z,989.76
2022-09-12T01:51:56.729Z,989.76
2022-09-12T01:52:56.729Z,989.76
2022-09-12T01:53:56.724Z,989.76
2022-09-12T01:54:56.689Z,989.77
2022-09-12T01:55:56.683Z,989.77
2022-09-12T01:56:56.697Z,989.77
2022-09-12T01:57:56.667Z,989.76
2022-09-12T01:58:56.684Z,989.76
2022-09-12T01:59:56.651Z,989.75
2022-09-12T02:00:56.721Z,989.75
2022-09-12T02:01:56.654Z,989.75
2022-09-12T02:02:56.623Z,989.76
2022-09-12T02:03:56.619Z,989.76
2022-09-12T02:04:56.625Z,989.76
2022-09-12T02:05:56.598Z,989.75
2022-09-12T02:06:56.602Z,989.74
2022-09-12T02:07:56.591Z,989.73
2022-09-12T02:08:56.577Z,989.72
2022-09-12T02:09:56.575Z,989.72
2022-09-12T02:10:56.597Z,989.71
2022-09-12T02:11:56.578Z,989.71
2022-09-12T02:12:56.550Z,989.71
2022-09-12T02:13:56.550Z,989.70
2022-09-12T02:14:56.535Z,989.69
2022-09-12T02:15:56.520Z,989.68
2022-09-12T02:16:57.179Z,989.68
2022-09-12T02:17:56.512Z,989.69
2022-09-12T02:18:56.497Z,989.69
2022-09-12T02:19:56.492Z,989.70
2022-09-12T02:20:56.482Z,989.68
2022-09-12T02:21:56.499Z,989.67
2022-09-12T02:22:56.597Z,989.65
2022-09-12T02:23:56.453Z,989.64
2022-09-12T02:24:56.460Z,989.65
2022-09-12T02:25:56.438Z,989.65
2022-09-12T02:26:56.449Z,989.65
2022-09-12T02:27:56.450Z,989.65
2022-09-12T02:28:56.421Z,989.66
2022-09-12T02:29:56.411Z,989.67
2022-09-12T02:30:56.510Z,989.67
2022-09-12T02:31:56.405Z,989.66
2022-09-12T02:32:56.488Z,989.64
2022-09-12T02:33:56.392Z,989.62
2022-09-12T02:34:56.402Z,989.60
2022-09-12T02:35:56.373Z,989.58
2022-09-12T02:36:56.366Z,989.56
2022-09-12T02:37:56.359Z,989.56
2022-09-12T02:38:56.377Z,989.56
2022-09-12T02:39:56.393Z,989.56
2022-09-12T02:40:56.334Z,989.55
2022-09-12T02:41:56.326Z,989.53
2022-09-12T02:42:56.326Z,989.52
2022-09-12T02:43:56.310Z,989.50
2022-09-12T02:44:56.324Z,989.49
2022-09-12T02:45:56.391Z,989.49
2022-09-12T02:46:56.288Z,989.49
2022-09-12T02:47:56.277Z,989.50
2022-09-12T02:48:56.281Z,989.51
2022-09-12T02:49:56.262Z,989.52
2022-09-12T02:50:56.263Z,989.52
2022-09-12T02:51:56.242Z,989.54
2022-09-12T02:52:56.226Z,989.55
2022-09-12T02:53:56.239Z,989.56
2022-09-12T02:54:56.215Z,989.56
2022-09-12T02:55:56.254Z,989.56
2022-09-12T02:56:56.238Z,989.55
2022-09-12T02:57:56.199Z,989.55
2022-09-12T02:58:56.180Z,989.54
2022-09-12T02:59:56.176Z,989.55
2022-09-12T03:00:56.209Z,989.54
2022-09-12T03:01:56.178Z,989.54
2022-09-12T03:02:56.170Z,989.54
2022-09-12T03:03:56.143Z,989.54
2022-09-12T03:04:56.130Z,989.54
2022-09-12T03:05:56.131Z,989.54
2022-09-12T03:06:56.117Z,989.54
2022-09-12T03:07:56.177Z,989.53
2022-09-12T03:08:56.104Z,989.52
2022-09-12T03:09:56.758Z,989.52
2022-09-12T03:10:56.088Z,989.51
2022-09-12T03:11:56.152Z,989.50
2022-09-12T03:12:56.089Z,989.50
2022-09-12T03:13:56.073Z,989.50
2022-09-12T03:14:56.058Z,989.50
2022-09-12T03:15:56.080Z,989.50
2022-09-12T03:16:56.066Z,989.49
2022-09-12T03:17:56.035Z,989.48
2022-09-12T03:18:56.048Z,989.47
2022-09-12T03:19:56.025Z,989.47
2022-09-12T03:20:56.015Z,989.46
2022-09-12T03:21:56.005Z,989.46
2022-09-12T03:22:56.023Z,989.46
2022-09-12T03:23:55.984Z,989.46
2022-09-12T03:24:56.005Z,989.45
2022-09-12T03:25:55.969Z,989.44
2022-09-12T03:26:55.970Z,989.44
2022-09-12T03:27:55.966Z,989.43
2022-09-12T03:28:55.965Z,989.42
2022-09-12T03:29:55.949Z,989.43
2022-09-12T03:30:55.976Z,989.42
2022-09-12T03:31:55.930Z,989.42
2022-09-12T03:32:55.929Z,989.43
2022-09-12T03:33:55.915Z,989.43
2022-09-12T03:34:55.905Z,989.44
2022-09-12T03:35:55.920Z,989.44
2022-09-12T03:36:55.891Z,989.45
2022-09-12T03:37:55.882Z,989.46
2022-09-12T03:38:55.871Z,989.45
2022-09-12T03:39:55.913Z,989.45
2022-09-12T03:40:55.854Z,989.46
2022-09-12T03:41:55.864Z,989.46
2022-09-12T03:42:55.885Z,989.46
2022-09-12T03:43:55.861Z,989.46
2022-09-12T03:44:55.839Z,989.47
2022-09-12T03:45:55.845Z,989.46
2022-09-12T03:46:55.809Z,989.46
2022-09-12T03:47:55.803Z,989.45
2022-09-12T03:48:55.817Z,989.45
2022-09-12T03:49:55.802Z,989.44
2022-09-12T03:50:55.812Z,989.44
2022-09-12T03:51:55.766Z,989.44
2022-09-12T03:52:55.781Z,989.44
2022-09-12T03:53:55.751Z,989.44
2022-09-12T03:54:56.396Z,989.44
2022-09-12T03:55:55.736Z,989.44
2022-09-12T03:56:55.725Z,989.43
2022-09-12T03:57:55.726Z,989.43
2022-09-12T03:58:55.741Z,989.43
2022-09-12T03:59:55.711Z,989.43
2022-09-12T04:00:55.727Z,989.44
2022-09-12T04:01:55.730Z,989.45
2022-09-12T04:02:55.686Z,989.45
2022-09-12T04:03:55.847Z,989.45
2022-09-12T04:04:55.697Z,989.46
2022-09-12T04:05:55.673Z,989.46
2022-09-12T04:06:55.645Z,989.46
2022-09-12T04:07:55.634Z,989.47
2022-09-12T04:08:55.626Z,989.48
2022-09-12T04:09:55.642Z,989.49
2022-09-12T04:10:55.625Z,989.49
2022-09-12T04:11:55.599Z,989.49
2022-09-12T04:12:55.612Z,989.48
2022-09-12T04:13:55.594Z,989.48
2022-09-12T04:14:55.592Z,989.47
2022-09-12T04:15:55.657Z,989.46
2022-09-12T04:16:55.603Z,989.46
2022-09-12T04:17:55.575Z,989.46
2022-09-12T04:18:55.555Z,989.47
2022-09-12T04:19:55.542Z,989.48
2022-09-12T04:20:55.562Z,989.48
2022-09-12T04:21:55.545Z,989.50
2022-09-12T04:22:55.509Z,989.50
2022-09-12T04:23:55.515Z,989.52
2022-09-12T04:24:55.498Z,989.52
2022-09-12T04:25:55.499Z,989.53
2022-09-12T04:26:55.508Z,989.53
2022-09-12T04:27:55.534Z,989.54
2022-09-12T04:28:55.470Z,989.53
2022-09-12T04:29:55.466Z,989.53
2022-09-12T04:30:55.517Z,989.54
2022-09-12T04:31:55.453Z,989.54
2022-09-12T04:32:55.467Z,989.55
2022-09-12T04:33:55.461Z,989.56
2022-09-12T04:34:55.419Z,989.56
2022-09-12T04:35:55.418Z,989.57
2022-09-12T04:36:55.524Z,989.56
2022-09-12T04:37:55.411Z,989.55
2022-09-12T04:38:55.415Z,989.54
2022-09-12T04:39:55.493Z,989.53
2022-09-12T04:40:55.501Z,989.53
2022-09-12T04:41:55.407Z,989.51
2022-09-12T04:42:55.433Z,989.51
2022-09-12T04:43:55.388Z,989.50
2022-09-12T04:44:55.352Z,989.48
2022-09-12T04:45:55.373Z,989.47
2022-09-12T04:46:55.332Z,989.47
2022-09-12T04:47:55.336Z,989.47
2022-09-12T04:48:57.013Z,989.49
2022-09-12T04:49:55.680Z,989.50
2022-09-12T04:50:55.303Z,989.50
2022-09-12T04:51:55.300Z,989.50
2022-09-12T04:52:55.283Z,989.49
2022-09-12T04:53:55.291Z,989.48
2022-09-12T04:54:55.295Z,989.48
2022-09-12T04:55:56.449Z,989.49
2022-09-12T04:56:55.284Z,989.51
2022-09-12T04:57:55.257Z,989.53
2022-09-12T04:58:55.250Z,989.54
2022-09-12T04:59:55.245Z,989.55
2022-09-12T05:00:55.252Z,989.55
2022-09-12T05:01:55.281Z,989.54
2022-09-12T05:02:55.492Z,989.52
2022-09-12T05:03:55.204Z,989.51
2022-09-12T05:04:55.198Z,989.51
2022-09-12T05:05:56.540Z,989.52
2022-09-12T05:06:55.183Z,989.52
2022-09-12T05:07:55.194Z,989.52
2022-09-12T05:08:55.177Z,989.52
2022-09-12T05:09:55.412Z,989.52
2022-09-12T05:10:55.147Z,989.53
2022-09-12T05:12:10.201Z,989.53
2022-09-12T05:12:56.189Z,989.54
2022-09-12T05:13:55.134Z,989.55
2022-09-12T05:14:55.130Z,989.57
2022-09-12T05:15:55.205Z,989.58
2022-09-12T05:16:55.154Z,989.60
2022-09-12T05:17:55.089Z,989.61
2022-09-12T05:18:55.104Z,989.61
2022-09-12T05:19:55.078Z,989.60
2022-09-12T05:20:55.071Z,989.59
2022-09-12T05:21:55.081Z,989.60
2022-09-12T05:22:55.066Z,989.61
2022-09-12T05:23:55.045Z,989.62
2022-09-12T05:24:55.036Z,989.64
2022-09-12T05:25:55.061Z,989.65
2022-09-12T05:26:55.048Z,989.64
2022-09-12T05:27:55.072Z,989.63
2022-09-12T05:28:55.017Z,989.62
2022-09-12T05:29:54.998Z,989.61
2022-09-12T05:30:55.022Z,989.60
2022-09-12T05:31:54.977Z,989.60
2022-09-12T05:32:54.996Z,989.60
2022-09-12T05:33:54.962Z,989.60
2022-09-12T05:34:54.958Z,989.60
2022-09-12T05:35:54.959Z,989.61
2022-09-12T05:36:54.970Z,989.61
2022-09-12T05:37:54.935Z,989.62
2022-09-12T05:38:54.926Z,989.63
2022-09-12T05:39:54.955Z,989.62
2022-09-12T05:40:54.915Z,989.62
2022-09-12T05:41:54.900Z,989.62
2022-09-12T05:42:54.920Z,989.62
2022-09-12T05:43:54.891Z,989.62
2022-09-12T05:44:54.878Z,989.63
2022-09-12T05:45:54.894Z,989.63
2022-09-12T05:46:54.870Z,989.64
2022-09-12T05:47:54.854Z,989.64
2022-09-12T05:48:56.406Z,989.64
2022-09-12T05:49:54.845Z,989.64
2022-09-12T05:50:54.840Z,989.64
2022-09-12T05:51:54.835Z,989.65
2022-09-12T05:52:54.827Z,989.65
2022-09-12T05:53:54.816Z,989.66
2022-09-12T05:54:54.824Z,989.67
2022-09-12T05:55:54.818Z,989.68
2022-09-12T05:56:54.789Z,989.69
2022-09-12T05:57:54.777Z,989.69
2022-09-12T05:58:54.769Z,989.69
2022-09-12T05:59:54.847Z,989.69
2022-09-12T06:00:54.774Z,989.69
2022-09-12T06:01:54.903Z,989.69
2022-09-12T06:02:54.732Z,989.70
2022-09-12T06:03:55.026Z,989.71
2022-09-12T06:04:54.850Z,989.73
2022-09-12T06:05:54.740Z,989.75
2022-09-12T06:06:54.805Z,989.76
2022-09-12T06:07:54.703Z,989.76
2022-09-12T06:08:54.728Z,989.76
2022-09-12T06:09:54.794Z,989.76
2022-09-12T06:10:54.708Z,989.76
2022-09-12T06:11:54.678Z,989.76
2022-09-12T06:12:54.697Z,989.77
2022-09-12T06:13:54.653Z,989.77
2022-09-12T06:14:54.637Z,989.77
2022-09-12T06:15:54.629Z,989.76
2022-09-12T06:16:54.717Z,989.75
2022-09-12T06:17:54.644Z,989.74
2022-09-12T06:18:54.610Z,989.74
2022-09-12T06:19:54.612Z,989.73
2022-09-12T06:20:54.586Z,989.72
2022-09-12T06:21:54.587Z,989.72
2022-09-12T06:22:54.612Z,989.71
2022-09-12T06:23:54.588Z,989.72
2022-09-12T06:24:57.847Z,989.71
2022-09-12T06:25:54.580Z,989.70
2022-09-12T06:26:54.575Z,989.70
2022-09-12T06:27:54.562Z,989.69
2022-09-12T06:28:54.584Z,989.68
2022-09-12T06:29:54.617Z,989.68
2022-09-12T06:30:54.553Z,989.69
2022-09-12T06:31:54.501Z,989.70
2022-09-12T06:32:54.500Z,989.71
2022-09-12T06:33:54.500Z,989.72
2022-09-12T06:34:54.505Z,989.72
2022-09-12T06:35:54.511Z,989.72
2022-09-12T06:36:54.499Z,989.73
2022-09-12T06:37:54.471Z,989.74
2022-09-12T06:38:55.314Z,989.75
2022-09-12T06:39:54.478Z,989.75
2022-09-12T06:40:54.494Z,989.75
2022-09-12T06:41:54.506Z,989.74
2022-09-12T06:42:54.420Z,989.73
2022-09-12T06:43:54.428Z,989.74
2022-09-12T06:44:54.439Z,989.74
2022-09-12T06:45:54.433Z,989.73
2022-09-12T06:46:54.417Z,989.73
2022-09-12T06:47:54.388Z,989.73
2022-09-12T06:48:54.437Z,989.72
2022-09-12T06:49:54.362Z,989.71
2022-09-12T06:50:54.354Z,989.72
2022-09-12T06:51:54.460Z,989.72
2022-09-12T06:52:54.346Z,989.73
2022-09-12T06:53:54.327Z,989.73
2022-09-12T06:54:54.327Z,989.71
2022-09-12T06:55:54.303Z,989.70
2022-09-12T06:56:54.300Z,989.69
2022-09-12T06:57:54.354Z,989.68
2022-09-12T06:58:54.294Z,989.67
2022-09-12T06:59:54.286Z,989.67
2022-09-12T07:00:58.971Z,989.66
2022-09-12T07:01:54.371Z,989.66
2022-09-12T07:02:54.262Z,989.67
2022-09-12T07:03:54.265Z,989.66
2022-09-12T07:04:54.245Z,989.67
2022-09-12T07:05:54.301Z,989.67
2022-09-12T07:06:54.349Z,989.66
2022-09-12T07:07:54.222Z,989.65
2022-09-12T07:08:54.214Z,989.65
2022-09-12T07:09:54.213Z,989.64
2022-09-12T07:10:54.238Z,989.64
2022-09-12T07:11:54.182Z,989.62
2022-09-12T07:12:54.206Z,989.61
2022-09-12T07:13:54.236Z,989.61
2022-09-12T07:14:54.161Z,989.62
2022-09-12T07:15:54.187Z,989.62
2022-09-12T07:16:54.182Z,989.63
2022-09-12T07:17:54.148Z,989.64
2022-09-12T07:18:54.150Z,989.63
2022-09-12T07:19:54.152Z,989.63
2022-09-12T07:20:54.147Z,989.62
2022-09-12T07:21:58.011Z,989.61
2022-09-12T07:22:54.106Z,989.61
2022-09-12T07:23:54.089Z,989.61
2022-09-12T07:24:54.109Z,989.61
2022-09-12T07:25:54.088Z,989.62
2022-09-12T07:26:54.078Z,989.62
2022-09-12T07:27:54.058Z,989.61
2022-09-12T07:28:54.049Z,989.61
2022-09-12T07:29:54.034Z,989.61
2022-09-12T07:30:54.122Z,989.62
2022-09-12T07:31:54.089Z,989.62
2022-09-12T07:32:54.021Z,989.62
2022-09-12T07:33:54.878Z,989.62
2022-09-12T07:34:54.082Z,989.61
2022-09-12T07:35:54.018Z,989.60
2022-09-12T07:36:54.035Z,989.58
2022-09-12T07:37:54.008Z,989.57
2022-09-12T07:38:57.234Z,989.55
2022-09-12T07:39:54.027Z,989.54
2022-09-12T07:40:53.964Z,989.52
2022-09-12T07:41:53.986Z,989.51
2022-09-12T07:42:53.973Z,989.50
2022-09-12T07:43:53.937Z,989.51
2022-09-12T07:44:53.987Z,989.52
2022-09-12T07:45:53.930Z,989.52
2022-09-12T07:46:53.919Z,989.52
2022-09-12T07:47:53.923Z,989.53
2022-09-12T07:48:53.885Z,989.53
2022-09-12T07:49:53.882Z,989.54
2022-09-12T07:50:53.869Z,989.55
2022-09-12T07:51:53.887Z,989.55
2022-09-12T07:52:53.855Z,989.55
2022-09-12T07:53:53.847Z,989.54
2022-09-12T07:54:53.837Z,989.53
2022-09-12T07:55:53.840Z,989.53
2022-09-12T07:56:53.842Z,989.52
2022-09-12T07:57:53.938Z,989.52
2022-09-12T07:58:53.827Z,989.53
2022-09-12T07:59:54.029Z,989.53
2022-09-12T08:00:53.811Z,989.54
2022-09-12T08:01:53.792Z,989.54
2022-09-12T08:02:53.840Z,989.55
2022-09-12T08:03:53.797Z,989.55
2022-09-12T08:04:53.778Z,989.55
2022-09-12T08:05:53.763Z,989.55
2022-09-12T08:06:53.760Z,989.55
2022-09-12T08:07:57.627Z,989.56
2022-09-12T08:08:53.741Z,989.57
2022-09-12T08:09:53.727Z,989.58
2022-09-12T08:10:53.723Z,989.58
2022-09-12T08:11:53.707Z,989.59
2022-09-12T08:12:53.713Z,989.59
2022-09-12T08:13:55.614Z,989.60
2022-09-12T08:14:53.694Z,989.61
2022-09-12T08:15:53.727Z,989.61
2022-09-12T08:16:53.683Z,989.62
2022-09-12T08:17:53.676Z,989.62
2022-09-12T08:18:53.866Z,989.62
2022-09-12T08:19:53.645Z,989.61
2022-09-12T08:20:53.644Z,989.61
2022-09-12T08:21:53.630Z,989.60
2022-09-12T08:22:53.662Z,989.61
2022-09-12T08:23:53.617Z,989.62
2022-09-12T08:24:53.626Z,989.63
2022-09-12T08:25:53.598Z,989.65
2022-09-12T08:26:53.637Z,989.65
2022-09-12T08:27:54.353Z,989.65
2022-09-12T08:28:53.581Z,989.65
2022-09-12T08:29:53.586Z,989.64
2022-09-12T08:30:53.661Z,989.64
2022-09-12T08:31:57.139Z,989.64
2022-09-12T08:32:53.548Z,989.64
2022-09-12T08:33:53.540Z,989.65
2022-09-12T08:34:53.540Z,989.63
2022-09-12T08:35:53.558Z,989.63
2022-09-12T08:36:53.510Z,989.62
2022-09-12T08:37:53.533Z,989.61
2022-09-12T08:38:57.360Z,989.60
2022-09-12T08:39:54.515Z,989.59
2022-09-12T08:40:53.505Z,989.58
2022-09-12T08:41:53.482Z,989.57
2022-09-12T08:42:53.541Z,989.56
2022-09-12T08:43:56.671Z,989.55
2022-09-12T08:44:53.447Z,989.52
2022-09-12T08:45:53.562Z,989.51
2022-09-12T08:46:53.453Z,989.52
2022-09-12T08:47:53.430Z,989.52
2022-09-12T08:48:53.406Z,989.50
2022-09-12T08:49:53.417Z,989.49
2022-09-12T08:50:53.400Z,989.48
2022-09-12T08:51:53.409Z,989.47
2022-09-12T08:52:53.394Z,989.44
2022-09-12T08:53:53.458Z,989.43
2022-09-12T08:54:53.371Z,989.42
2022-09-12T08:55:53.354Z,989.42
2022-09-12T08:56:53.354Z,989.41
2022-09-12T08:57:53.351Z,989.40
2022-09-12T08:58:53.341Z,989.36
2022-09-12T08:59:53.357Z,989.39
2022-09-12T09:00:53.323Z,989.38
2022-09-12T09:01:53.363Z,989.38
2022-09-12T09:02:53.368Z,989.37
2022-09-12T09:03:53.326Z,989.34
2022-09-12T09:04:53.287Z,989.33
2022-09-12T09:05:53.277Z,989.32
2022-09-12T09:06:53.408Z,989.30
2022-09-12T09:07:53.273Z,989.29
2022-09-12T09:08:53.324Z,989.27
2022-09-12T09:09:53.339Z,989.25
2022-09-12T09:10:53.239Z,989.24
2022-09-12T09:11:53.263Z,989.21
2022-09-12T09:12:53.233Z,989.20
2022-09-12T09:13:53.228Z,989.19
2022-09-12T09:14:53.221Z,989.18
2022-09-12T09:15:53.272Z,989.16
2022-09-12T09:16:53.212Z,989.15
2022-09-12T09:17:53.182Z,989.15
2022-09-12T09:18:53.188Z,989.13
2022-09-12T09:19:53.169Z,989.12
2022-09-12T09:20:53.167Z,989.12
2022-09-12T09:21:53.149Z,989.10
2022-09-12T09:22:53.583Z,989.09
2022-09-12T09:23:53.128Z,989.09
2022-09-12T09:24:53.123Z,989.07
2022-09-12T09:25:53.117Z,989.05
2022-09-12T09:26:53.125Z,989.04
2022-09-12T09:27:53.131Z,989.01
2022-09-12T09:28:53.103Z,989.01
2022-09-12T09:29:53.085Z,988.97
2022-09-12T09:30:53.159Z,989.00
2022-09-12T09:31:53.080Z,988.99
2022-09-12T09:32:53.051Z,989.01
2022-09-12T09:33:53.070Z,989.00
2022-09-12T09:34:53.046Z,989.00
2022-09-12T09:35:53.036Z,989.00
2022-09-12T09:36:53.025Z,988.98
2022-09-12T09:39:19.189Z,988.94
2022-09-12T09:40:19.236Z,988.94
2022-09-12T09:41:19.151Z,988.93
2022-09-12T09:42:19.164Z,988.93
2022-09-12T09:43:19.134Z,988.94
2022-09-12T09:44:19.133Z,988.95
2022-09-12T09:45:19.171Z,988.94
2022-09-12T09:46:19.155Z,988.93
2022-09-12T09:47:19.157Z,988.91
2022-09-12T09:48:19.125Z,988.90
2022-09-12T09:49:19.113Z,988.87
2022-09-12T09:50:19.127Z,988.87
2022-09-12T09:51:19.086Z,988.86
2022-09-12T09:52:19.079Z,988.86
2022-09-12T09:53:19.086Z,988.86
2022-09-12T09:54:19.061Z,988.85
2022-09-12T09:55:19.058Z,988.84
2022-09-12T09:56:21.514Z,988.85
2022-09-12T09:57:19.048Z,988.84
2022-09-12T09:58:19.025Z,988.84
2022-09-12T09:59:19.039Z,988.83
2022-09-12T10:00:19.015Z,988.82
2022-09-12T10:01:19.098Z,988.81
2022-09-12T10:02:23.680Z,988.80
2022-09-12T10:03:19.998Z,988.78
2022-09-12T10:04:18.984Z,988.78
2022-09-12T10:05:18.976Z,988.78
2022-09-12T10:06:18.965Z,988.75
2022-09-12T10:07:18.977Z,988.74
2022-09-12T10:08:18.956Z,988.72
2022-09-12T10:09:18.944Z,988.70
2022-09-12T10:10:18.958Z,988.69
2022-09-12T10:11:18.915Z,988.68
2022-09-12T10:12:18.933Z,988.68
2022-09-12T10:13:18.930Z,988.67
2022-09-12T10:14:18.900Z,988.65
2022-09-12T10:15:18.896Z,988.63
2022-09-12T10:16:19.007Z,988.64
2022-09-12T10:17:18.869Z,988.63
2022-09-12T10:18:18.861Z,988.62
2022-09-12T10:19:18.972Z,988.63
2022-09-12T10:20:22.260Z,988.62
2022-09-12T10:21:18.850Z,988.61
2022-09-12T10:22:18.858Z,988.62
2022-09-12T10:23:18.882Z,988.62
2022-09-12T10:24:18.825Z,988.62
2022-09-12T10:25:18.848Z,988.62
2022-09-12T10:26:18.810Z,988.64
2022-09-12T10:27:18.801Z,988.63
2022-09-12T10:28:18.800Z,988.65
2022-09-12T10:29:18.786Z,988.66
2022-09-12T10:30:18.772Z,988.64
2022-09-12T10:31:18.851Z,988.65
2022-09-12T10:32:18.757Z,988.64
2022-09-12T10:33:18.748Z,988.64
2022-09-12T10:34:18.744Z,988.65
2022-09-12T10:35:18.748Z,988.65
2022-09-12T10:36:18.722Z,988.65
2022-09-12T10:37:18.758Z,988.64
2022-09-12T10:38:18.728Z,988.63
2022-09-12T10:39:18.761Z,988.63
2022-09-12T10:40:18.719Z,988.61
2022-09-12T10:41:18.769Z,988.61
2022-09-12T10:42:23.270Z,988.59
2022-09-12T10:43:18.710Z,988.59
2022-09-12T10:44:18.670Z,988.58
2022-09-12T10:45:18.654Z,988.58
2022-09-12T10:46:19.763Z,988.57
2022-09-12T10:47:18.637Z,988.57
2022-09-12T10:48:18.673Z,988.57
2022-09-12T10:49:18.620Z,988.56
2022-09-12T10:50:22.848Z,988.56
2022-09-12T10:51:18.602Z,988.56
2022-09-12T10:52:18.590Z,988.55
2022-09-12T10:53:18.590Z,988.54
2022-09-12T10:54:18.590Z,988.52
2022-09-12T10:55:18.663Z,988.50
2022-09-12T10:56:18.612Z,988.49
2022-09-12T10:57:18.595Z,988.47
2022-09-12T10:58:18.566Z,988.46
2022-09-12T10:59:20.284Z,988.47
2022-09-12T11:00:18.554Z,988.46
2022-09-12T11:01:18.565Z,988.45
2022-09-12T11:02:18.601Z,988.44
2022-09-12T11:03:18.513Z,988.42
2022-09-12T11:04:18.503Z,988.42
2022-09-12T11:05:22.451Z,988.44
2022-09-12T11:06:18.484Z,988.43
2022-09-12T11:07:18.478Z,988.42
2022-09-12T11:08:18.513Z,988.41
2022-09-12T11:09:18.472Z,988.43
2022-09-12T11:10:18.458Z,988.43
2022-09-12T11:11:18.465Z,988.42
2022-09-12T11:12:18.441Z,988.42
2022-09-12T11:13:18.475Z,988.42
2022-09-12T11:14:18.420Z,988.41
2022-09-12T11:15:18.418Z,988.40
2022-09-12T11:16:18.664Z,988.37
2022-09-12T11:17:18.415Z,988.36
2022-09-12T11:18:19.234Z,988.36
2022-09-12T11:19:18.403Z,988.35
2022-09-12T11:20:18.381Z,988.34
2022-09-12T11:21:18.383Z,988.32
2022-09-12T11:22:18.390Z,988.30
2022-09-12T11:23:18.340Z,988.26
2022-09-12T11:24:18.343Z,988.25
2022-09-12T11:25:18.342Z,988.24
2022-09-12T11:26:18.410Z,988.24
2022-09-12T11:27:18.408Z,988.23
2022-09-12T11:28:18.378Z,988.23
2022-09-12T11:29:18.305Z,988.22
2022-09-12T11:30:18.288Z,988.21
2022-09-12T11:31:18.412Z,988.20
2022-09-12T11:32:18.362Z,988.19
2022-09-12T11:33:18.276Z,988.18
2022-09-12T11:34:18.263Z,988.18
2022-09-12T11:35:18.250Z,988.17
2022-09-12T11:36:18.289Z,988.18
2022-09-12T11:37:18.346Z,988.15
2022-09-12T11:38:18.269Z,988.15
2022-09-12T11:39:18.227Z,988.14
2022-09-12T11:40:18.262Z,988.15
2022-09-12T11:41:18.208Z,988.15
2022-09-12T11:42:18.218Z,988.16
2022-09-12T11:43:18.192Z,988.15
2022-09-12T11:44:18.241Z,988.13
2022-09-12T11:45:18.205Z,988.13
2022-09-12T11:46:18.378Z,988.15
2022-09-12T11:47:18.167Z,988.16
2022-09-12T11:48:18.162Z,988.15
2022-09-12T11:49:18.148Z,988.15
2022-09-12T11:50:18.164Z,988.15
2022-09-12T11:51:18.155Z,988.15
2022-09-12T11:52:18.126Z,988.12
2022-09-12T11:53:18.121Z,988.13
2022-09-12T11:54:18.109Z,988.16
2022-09-12T11:55:18.136Z,988.15
2022-09-12T11:56:18.091Z,988.14
2022-09-12T11:57:18.095Z,988.12
2022-09-12T11:58:18.093Z,988.11
2022-09-12T11:59:18.067Z,988.08
2022-09-12T12:00:18.074Z,988.08
2022-09-12T12:01:18.053Z,988.06
2022-09-12T12:02:18.142Z,988.06
2022-09-12T12:03:18.169Z,988.05
2022-09-12T12:04:18.032Z,988.03
2022-09-12T12:05:18.034Z,988.02
2022-09-12T12:06:18.018Z,988.01
2022-09-12T12:07:18.016Z,988.01
2022-09-12T12:08:18.022Z,988.00
2022-09-12T12:09:17.994Z,988.01
2022-09-12T12:10:17.999Z,988.01
2022-09-12T12:11:17.978Z,988.02
2022-09-12T12:12:17.993Z,988.02
2022-09-12T12:13:18.059Z,988.02
2022-09-12T12:14:17.957Z,988.01
2022-09-12T12:15:17.947Z,988.02
2022-09-12T12:16:17.990Z,988.01
2022-09-12T12:17:17.942Z,988.02
2022-09-12T12:18:17.957Z,988.01
2022-09-12T12:19:17.919Z,988.01
2022-09-12T12:20:18.632Z,988.00
2022-09-12T12:21:17.902Z,987.99
2022-09-12T12:22:17.889Z,987.98
2022-09-12T12:23:17.887Z,987.97
2022-09-12T12:24:17.902Z,987.95
2022-09-12T12:25:21.385Z,987.93
2022-09-12T12:26:17.867Z,987.91
2022-09-12T12:27:17.848Z,987.89
2022-09-12T12:28:17.872Z,987.87
2022-09-12T12:29:17.848Z,987.86
2022-09-12T12:30:17.829Z,987.84